Time;durP1;ratioP1;P1;durP2;ratioP2;P2;SDS_P1;SDS_P2;PMS_P1;PMS_P2;Temp;Humidity;BMP_temperature;BMP_pressure;BME280_temperature;BME280_humidity;BME280_pressure;Samples;Min_cycle;Max_cycle;Signal;HPM_P1;HPM_P2
2023/03/30 00:01:08;;;;;;;;;;;;;;;;;;5094455;28;19993;-69
2023/03/30 00:03:37;;;;;;;;;;;;;;;;;;5094470;28;19908;-69
2023/03/30 00:06:04;;;;;;;;;;;;;;;;;;5093937;28;19920;-69
2023/03/30 00:08:32;;;;;;;;;;;;;;;;;;5094481;28;19947;-69
2023/03/30 00:10:59;;;;;;;;;;;;;;;;;;5094487;28;19908;-69
2023/03/30 00:13:25;;;;;;;;;;;;;;;;;;5093929;28;19908;-69
2023/03/30 00:15:51;;;;;;;;;;;;;;;;;;5094406;28;19961;-69
2023/03/30 00:18:17;;;;;;;;;;;;;;;;;;5094311;28;19947;-69
2023/03/30 00:20:43;;;;;;;;;;;;;;;;;;5093807;28;19919;-69
2023/03/30 00:23:10;;;;;;;;;;;;;;;;;;5092913;28;19912;-69
2023/03/30 00:25:36;;;;;;;;;;;;;;;;;;5094065;28;19908;-69
2023/03/30 00:28:01;;;;;;;;;;;;;;;;;;5093736;28;19908;-69
2023/03/30 00:30:27;;;;;;;;;;;;;;;;;;5094060;28;19915;-69
2023/03/30 00:32:53;;;;;;;;;;;;;;;;;;5093649;28;19908;-69
2023/03/30 00:35:19;;;;;;;;;;;;;;;;;;5093983;28;19912;-69
2023/03/30 00:37:48;;;;;;;;;;;;;;;;;;5093936;28;20300;-69
2023/03/30 00:40:15;;;;;;;;;;;;;;;;;;5093725;28;20008;-69
2023/03/30 00:42:41;;;;;;;;;;;;;;;;;;5093954;28;19909;-69
2023/03/30 00:45:07;;;;;;;;;;;;;;;;;;5094260;28;20352;-68
2023/03/30 00:47:33;;;;;;;;;;;;;;;;;;5093536;28;19995;-69
2023/03/30 00:49:59;;;;;;;;;;;;;;;;;;5093846;28;19908;-68
2023/03/30 00:52:26;;;;;;;;;;;;;;;;;;5093852;28;19908;-69
2023/03/30 00:54:52;;;;;;;;;;;;;;;;;;5092165;28;19912;-69
2023/03/30 00:57:18;;;;;;;;;;;;;;;;;;5093799;28;20004;-70
2023/03/30 00:59:46;;;;;;;;;;;;;;;;;;5093762;28;19908;-70
2023/03/30 01:02:12;;;;;;;;;;;;;;;;;;5093553;28;20007;-69
2023/03/30 01:04:38;;;;;;;;;;;;;;;;;;5093784;28;20321;-69
2023/03/30 01:07:03;;;;;;;;;;;;;;;;;;5092477;28;20272;-69
2023/03/30 01:09:29;;;;;;;;;;;;;;;;;;5097464;28;20284;-69
2023/03/30 01:11:55;;;;;;;;;;;;;;;;;;5097772;28;20375;-69
2023/03/30 01:14:21;;;;;;;;;;;;;;;;;;5097684;28;19908;-69
2023/03/30 01:16:47;;;;;;;;;;;;;;;;;;5097306;28;19993;-69
2023/03/30 01:19:15;;;;;;;;;;;;;;;;;;5097611;28;19908;-69
2023/03/30 01:21:41;;;;;;;;;;;;;;;;;;5097589;28;19931;-69
2023/03/30 01:24:07;;;;;;;;;;;;;;;;;;5097131;28;20361;-69
2023/03/30 01:26:33;;;;;;;;;;;;;;;;;;5097542;28;19920;-69
2023/03/30 01:28:59;;;;;;;;;;;;;;;;;;5097453;28;20014;-69
2023/03/30 01:31:26;;;;;;;;;;;;;;;;;;5097011;28;19931;-69
2023/03/30 01:33:52;;;;;;;;;;;;;;;;;;5096080;28;19909;-69
2023/03/30 01:36:18;;;;;;;;;;;;;;;;;;5096872;28;19977;-69
2023/03/30 01:38:44;;;;;;;;;;;;;;;;;;5095946;28;19961;-69
2023/03/30 01:41:10;;;;;;;;;;;;;;;;;;5097154;28;20384;-68
2023/03/30 01:43:36;;;;;;;;;;;;;;;;;;5096808;28;19915;-70
2023/03/30 01:46:02;;;;;;;;;;;;;;;;;;5096816;28;19927;-69
2023/03/30 01:48:28;;;;;;;;;;;;;;;;;;5097344;28;19908;-69
2023/03/30 01:50:55;;;;;;;;;;;;;;;;;;5096676;28;20006;-69
2023/03/30 01:53:21;;;;;;;;;;;;;;;;;;5096999;28;19915;-69
2023/03/30 01:55:47;;;;;;;;;;;;;;;;;;5096970;28;19912;-70
2023/03/30 01:58:13;;;;;;;;;;;;;;;;;;5096476;28;19912;-70
2023/03/30 02:00:40;;;;;;;;;;;;;;;;;;5095552;28;19908;-70
2023/03/30 02:03:07;;;;;;;;;;;;;;;;;;5096818;28;20344;-70
2023/03/30 02:05:33;;;;;;;;;;;;;;;;;;5096358;28;19912;-70
2023/03/30 02:08:00;;;;;;;;;;;;;;;;;;5095428;28;20002;-69
2023/03/30 02:10:26;;;;;;;;;;;;;;;;;;5096700;28;20023;-70
2023/03/30 02:12:52;;;;;;;;;;;;;;;;;;5096229;28;20423;-70
2023/03/30 02:15:17;;;;;;;;;;;;;;;;;;5095304;28;20391;-69
2023/03/30 02:17:46;;;;;;;;;;;;;;;;;;5096445;28;19915;-70
2023/03/30 02:20:15;;;;;;;;;;;;;;;;;;5095953;28;19915;-70
2023/03/30 02:22:41;;;;;;;;;;;;;;;;;;5095160;28;19961;-70
2023/03/30 02:25:07;;;;;;;;;;;;;;;;;;5096892;28;19908;-69
2023/03/30 02:27:33;;;;;;;;;;;;;;;;;;5096041;28;20284;-69
2023/03/30 02:29:59;;;;;;;;;;;;;;;;;;5096352;28;19915;-69
2023/03/30 02:32:25;;;;;;;;;;;;;;;;;;5095900;28;19908;-70
2023/03/30 02:34:51;;;;;;;;;;;;;;;;;;5096239;28;19915;-70
2023/03/30 02:37:18;;;;;;;;;;;;;;;;;;5096198;28;20007;-69
2023/03/30 02:39:43;;;;;;;;;;;;;;;;;;5095766;28;19912;-70
2023/03/30 02:42:09;;;;;;;;;;;;;;;;;;5096155;28;20360;-70
2023/03/30 02:44:35;;;;;;;;;;;;;;;;;;5094801;28;20371;-69
2023/03/30 02:47:01;;;;;;;;;;;;;;;;;;5095352;28;19920;-69
2023/03/30 02:49:27;;;;;;;;;;;;;;;;;;5095983;28;19916;-69
2023/03/30 02:51:53;;;;;;;;;;;;;;;;;;5095962;28;19930;-69
2023/03/30 02:54:19;;;;;;;;;;;;;;;;;;5094230;28;20356;-70
2023/03/30 02:56:46;;;;;;;;;;;;;;;;;;5095788;28;20353;-69
2023/03/30 02:59:12;;;;;;;;;;;;;;;;;;5095724;28;19916;-69
2023/03/30 03:01:38;;;;;;;;;;;;;;;;;;5095229;28;19909;-70
2023/03/30 03:04:04;;;;;;;;;;;;;;;;;;5094337;28;19908;-70
2023/03/30 03:06:33;;;;;;;;;;;;;;;;;;5095608;28;19970;-70
2023/03/30 03:08:59;;;;;;;;;;;;;;;;;;5093843;28;20372;-70
2023/03/30 03:11:25;;;;;;;;;;;;;;;;;;5095593;28;19915;-70
2023/03/30 03:13:51;;;;;;;;;;;;;;;;;;5094139;28;19987;-70
2023/03/30 03:16:17;;;;;;;;;;;;;;;;;;5095018;28;19908;-69
2023/03/30 03:18:43;;;;;;;;;;;;;;;;;;5095386;28;19912;-70
2023/03/30 03:21:09;;;;;;;;;;;;;;;;;;5095341;28;20411;-69
2023/03/30 03:23:35;;;;;;;;;;;;;;;;;;5094858;28;19908;-70
2023/03/30 03:26:01;;;;;;;;;;;;;;;;;;5095246;28;19938;-70
2023/03/30 03:28:27;;;;;;;;;;;;;;;;;;5093840;28;19912;-70
2023/03/30 03:30:53;;;;;;;;;;;;;;;;;;5093861;28;19912;-70
2023/03/30 03:33:19;;;;;;;;;;;;;;;;;;5095098;28;20360;-69
2023/03/30 03:35:45;;;;;;;;;;;;;;;;;;5093329;28;19908;-68
2023/03/30 03:38:11;;;;;;;;;;;;;;;;;;5095124;28;20273;-70
2023/03/30 03:40:37;;;;;;;;;;;;;;;;;;5093585;28;20045;-71
2023/03/30 03:43:03;;;;;;;;;;;;;;;;;;5093269;28;19912;-70
2023/03/30 03:45:29;;;;;;;;;;;;;;;;;;5094551;28;19919;-70
2023/03/30 03:47:55;;;;;;;;;;;;;;;;;;5093443;28;19914;-69
2023/03/30 03:50:21;;;;;;;;;;;;;;;;;;5094269;28;20416;-69
2023/03/30 03:52:47;;;;;;;;;;;;;;;;;;5094905;28;19999;-70
2023/03/30 03:55:12;;;;;;;;;;;;;;;;;;5094959;28;19957;-70
2023/03/30 03:57:39;;;;;;;;;;;;;;;;;;5094250;28;19909;-70
2023/03/30 04:00:14;;;;;;;;;;;;;;;;;;5094586;28;20295;-70
2023/03/30 04:02:40;;;;;;;;;;;;;;;;;;5094777;28;19961;-69
2023/03/30 04:05:06;;;;;;;;;;;;;;;;;;5094222;28;19908;-68
2023/03/30 04:07:34;;;;;;;;;;;;;;;;;;5094304;28;19916;-68
2023/03/30 04:10:00;;;;;;;;;;;;;;;;;;5094435;28;19912;-70
2023/03/30 04:12:26;;;;;;;;;;;;;;;;;;5093966;28;19908;-70
2023/03/30 04:14:52;;;;;;;;;;;;;;;;;;5094304;28;19916;-69
2023/03/30 04:17:22;;;;;;;;;;;;;;;;;;5094259;28;19908;-69
2023/03/30 04:19:52;;;;;;;;;;;;;;;;;;5093937;28;19931;-69
2023/03/30 04:22:18;;;;;;;;;;;;;;;;;;5091371;28;20002;-69
2023/03/30 04:24:44;;;;;;;;;;;;;;;;;;5093763;28;19915;-69
2023/03/30 04:27:13;;;;;;;;;;;;;;;;;;5093409;28;20018;-70
2023/03/30 04:29:39;;;;;;;;;;;;;;;;;;5092662;28;19914;-70
2023/03/30 04:32:05;;;;;;;;;;;;;;;;;;5093940;28;19954;-70
2023/03/30 04:34:31;;;;;;;;;;;;;;;;;;5092574;28;19912;-69
2023/03/30 04:36:57;;;;;;;;;;;;;;;;;;5091927;28;19912;-70
2023/03/30 04:39:23;;;;;;;;;;;;;;;;;;5091648;28;19931;-69
2023/03/30 04:41:51;;;;;;;;;;;;;;;;;;5091537;28;19908;-70
2023/03/30 04:44:19;;;;;;;;;;;;;;;;;;5091805;28;19908;-69
2023/03/30 04:46:45;;;;;;;;;;;;;;;;;;5090956;28;19924;-69
2023/03/30 04:49:11;;;;;;;;;;;;;;;;;;5092961;28;20307;-69
2023/03/30 04:51:38;;;;;;;;;;;;;;;;;;5092559;28;20324;-69
2023/03/30 04:54:04;;;;;;;;;;;;;;;;;;5093321;28;20000;-68
2023/03/30 04:56:30;;;;;;;;;;;;;;;;;;5093696;28;19915;-69
2023/03/30 04:58:56;;;;;;;;;;;;;;;;;;5093727;28;19908;-69
2023/03/30 05:01:23;;;;;;;;;;;;;;;;;;5092044;28;19920;-68
2023/03/30 05:03:49;;;;;;;;;;;;;;;;;;5093842;28;20347;-69
2023/03/30 05:06:15;;;;;;;;;;;;;;;;;;5093626;28;20011;-69
2023/03/30 05:08:41;;;;;;;;;;;;;;;;;;5093317;28;20323;-69
2023/03/30 05:11:07;;;;;;;;;;;;;;;;;;5093616;28;19908;-69
2023/03/30 05:13:32;;;;;;;;;;;;;;;;;;5093243;28;19916;-80
2023/03/30 05:15:58;;;;;;;;;;;;;;;;;;5091100;28;20326;-78
2023/03/30 05:18:24;;;;;;;;;;;;;;;;;;5091569;28;20299;-77
2023/03/30 05:20:50;;;;;;;;;;;;;;;;;;5091608;28;19909;-82
2023/03/30 05:23:16;;;;;;;;;;;;;;;;;;5088004;28;19908;-82
2023/03/30 05:25:45;;;;;;;;;;;;;;;;;;5101613;28;19955;-80
2023/03/30 05:28:11;;;;;;;;;;;;;;;;;;5100328;28;20360;-71
2023/03/30 05:30:41;;;;;;;;;;;;;;;;;;5089722;28;19908;-71
2023/03/30 05:33:08;;;;;;;;;;;;;;;;;;5087507;28;19912;-71
2023/03/30 05:35:34;;;;;;;;;;;;;;;;;;5087615;28;19956;-70
2023/03/30 05:38:02;;;;;;;;;;;;;;;;;;5083766;28;20381;-70
2023/03/30 05:40:29;;;;;;;;;;;;;;;;;;5081293;28;19908;-71
2023/03/30 05:42:55;;;;;;;;;;;;;;;;;;5089432;28;19908;-71
2023/03/30 05:45:20;;;;;;;;;;;;;;;;;;5081314;28;19919;-70
2023/03/30 05:47:46;;;;;;;;;;;;;;;;;;5082918;28;19920;-70
2023/03/30 05:50:12;;;;;;;;;;;;;;;;;;5075842;28;19964;-71
2023/03/30 05:52:38;;;;;;;;;;;;;;;;;;5087865;28;19919;-71
2023/03/30 05:55:04;;;;;;;;;;;;;;;;;;5087018;28;19919;-72
2023/03/30 05:57:30;;;;;;;;;;;;;;;;;;5080832;28;20053;-72
2023/03/30 05:59:56;;;;;;;;;;;;;;;;;;5072765;28;19908;-73
2023/03/30 06:02:23;;;;;;;;;;;;;;;;;;5078173;28;19918;-72
2023/03/30 06:04:49;;;;;;;;;;;;;;;;;;5093286;28;19915;-71
2023/03/30 06:07:16;;;;;;;;;;;;;;;;;;5093483;28;20315;-72
2023/03/30 06:09:42;;;;;;;;;;;;;;;;;;5087927;28;20376;-71
2023/03/30 06:12:08;;;;;;;;;;;;;;;;;;5083735;28;19912;-73
2023/03/30 06:14:34;;;;;;;;;;;;;;;;;;5083177;28;19916;-73
2023/03/30 06:17:02;;;;;;;;;;;;;;;;;;5082849;28;19916;-71
2023/03/30 06:19:28;;;;;;;;;;;;;;;;;;5079678;28;19913;-72
2023/03/30 06:21:54;;;;;;;;;;;;;;;;;;5086049;28;20330;-69
2023/03/30 06:24:20;;;;;;;;;;;;;;;;;;5079494;28;20292;-69
2023/03/30 06:26:47;;;;;;;;;;;;;;;;;;5086708;28;20265;-71
2023/03/30 06:29:13;;;;;;;;;;;;;;;;;;5093803;28;20437;-70
2023/03/30 06:31:39;;;;;;;;;;;;;;;;;;5093091;28;19908;-68
2023/03/30 06:34:05;;;;;;;;;;;;;;;;;;5091904;28;19999;-71
2023/03/30 06:36:31;;;;;;;;;;;;;;;;;;5082246;28;20008;-70
2023/03/30 06:38:57;;;;;;;;;;;;;;;;;;5081314;28;19958;-71
2023/03/30 06:41:23;;;;;;;;;;;;;;;;;;5084997;28;19916;-71
2023/03/30 06:43:49;;;;;;;;;;;;;;;;;;5086451;28;20407;-71
2023/03/30 06:46:15;;;;;;;;;;;;;;;;;;5083749;28;20703;-71
2023/03/30 06:48:41;;;;;;;;;;;;;;;;;;5087237;28;19912;-71
2023/03/30 06:51:07;;;;;;;;;;;;;;;;;;5090433;28;20461;-70
2023/03/30 06:53:33;;;;;;;;;;;;;;;;;;5086973;28;19916;-69
2023/03/30 06:55:59;;;;;;;;;;;;;;;;;;5078222;28;19916;-69
2023/03/30 06:58:26;;;;;;;;;;;;;;;;;;5084358;28;19923;-70
2023/03/30 07:00:52;;;;;;;;;;;;;;;;;;5069476;28;19962;-71
2023/03/30 07:03:18;;;;;;;;;;;;;;;;;;5084332;28;19919;-71
2023/03/30 07:05:44;;;;;;;;;;;;;;;;;;5080036;28;19916;-72
2023/03/30 07:08:09;;;;;;;;;;;;;;;;;;5081669;28;19970;-71
2023/03/30 07:10:35;;;;;;;;;;;;;;;;;;5078930;28;19967;-71
2023/03/30 07:13:01;;;;;;;;;;;;;;;;;;5079071;28;20002;-70
2023/03/30 07:15:27;;;;;;;;;;;;;;;;;;5082241;28;19971;-72
2023/03/30 07:17:53;;;;;;;;;;;;;;;;;;5080299;28;19912;-71
2023/03/30 07:20:19;;;;;;;;;;;;;;;;;;5081676;28;19912;-69
2023/03/30 07:22:45;;;;;;;;;;;;;;;;;;5086845;28;19916;-70
2023/03/30 07:25:11;;;;;;;;;;;;;;;;;;5088545;28;19912;-72
2023/03/30 07:27:37;;;;;;;;;;;;;;;;;;5089159;28;20018;-71
2023/03/30 07:30:03;;;;;;;;;;;;;;;;;;5084032;28;19916;-70
2023/03/30 07:32:29;;;;;;;;;;;;;;;;;;5080381;28;19912;-69
2023/03/30 07:34:55;;;;;;;;;;;;;;;;;;5085714;28;19965;-71
2023/03/30 07:37:21;;;;;;;;;;;;;;;;;;5087731;28;19913;-69
2023/03/30 07:39:52;;;;;;;;;;;;;;;;;;5080892;28;19912;-70
2023/03/30 07:42:18;;;;;;;;;;;;;;;;;;5084241;28;19916;-70
2023/03/30 07:44:44;;;;;;;;;;;;;;;;;;5080034;28;19938;-70
2023/03/30 07:47:14;;;;;;;;;;;;;;;;;;5090768;28;20346;-68
2023/03/30 07:49:41;;;;;;;;;;;;;;;;;;5090783;28;19919;-71
2023/03/30 07:52:07;;;;;;;;;;;;;;;;;;5091758;28;19916;-72
2023/03/30 07:54:32;;;;;;;;;;;;;;;;;;5091951;28;19930;-72
2023/03/30 07:56:58;;;;;;;;;;;;;;;;;;5084511;28;19916;-71
2023/03/30 07:59:24;;;;;;;;;;;;;;;;;;5084838;28;19912;-72
2023/03/30 08:01:53;;;;;;;;;;;;;;;;;;5088769;28;20006;-71
2023/03/30 08:04:19;;;;;;;;;;;;;;;;;;5088272;28;19912;-72
2023/03/30 08:06:46;;;;;;;;;;;;;;;;;;5087816;28;19964;-72
2023/03/30 08:09:12;;;;;;;;;;;;;;;;;;5087727;28;19908;-70
2023/03/30 08:11:38;;;;;;;;;;;;;;;;;;5090616;28;19908;-70
2023/03/30 08:14:03;;;;;;;;;;;;;;;;;;5090901;28;19908;-71
2023/03/30 08:16:30;;;;;;;;;;;;;;;;;;5088034;28;19907;-70
2023/03/30 08:18:55;;;;;;;;;;;;;;;;;;5086255;28;19931;-71
2023/03/30 08:21:24;;;;;;;;;;;;;;;;;;5079943;28;20344;-70
2023/03/30 08:23:50;;;;;;;;;;;;;;;;;;5077442;28;20031;-70
2023/03/30 08:26:22;;;;;;;;;;;;;;;;;;5081584;28;20003;-69
2023/03/30 08:28:48;;;;;;;;;;;;;;;;;;5090467;28;20310;-69
2023/03/30 08:31:16;;;;;;;;;;;;;;;;;;5088356;28;19912;-69
2023/03/30 08:33:43;;;;;;;;;;;;;;;;;;5090319;28;19912;-70
2023/03/30 08:36:09;;;;;;;;;;;;;;;;;;5090728;28;20313;-69
2023/03/30 08:38:38;;;;;;;;;;;;;;;;;;5083697;28;19915;-70
2023/03/30 08:41:06;;;;;;;;;;;;;;;;;;5087195;28;19908;-68
2023/03/30 08:43:32;;;;;;;;;;;;;;;;;;5099084;28;20470;-69
2023/03/30 08:47:55;;;;;;;;;;;;;;;;;;5109076;27;19927;-71
2023/03/30 08:54:26;;;;;;;;;;;;;;;;;;5136949;27;19950;-69
2023/03/30 08:59:37;;;;;;;;;;;;;;;;;;5083295;27;19923;-70
2023/03/30 09:02:03;;;;;;;;;;;;;;;;;;5084991;28;19913;-68
2023/03/30 09:04:28;;;;;;;;;;;;;;;;;;5086306;28;19939;-70
2023/03/30 09:06:54;;;;;;;;;;;;;;;;;;5083888;28;19912;-68
2023/03/30 09:09:20;;;;;;;;;;;;;;;;;;5081828;28;19908;-68
2023/03/30 09:13:00;;;;;;;;;;;;;;;;;;5083053;27;19916;-68
2023/03/30 09:17:14;;;;;;;;;;;;;;;;;;5120837;27;19922;-69
2023/03/30 09:23:20;;;;;;;;;;;;;;;;;;5166376;27;19911;-67
2023/03/30 09:26:34;;;;;;;;;;;;;;;;;;5086009;27;19920;-69
2023/03/30 09:29:02;;;;;;;;;;;;;;;;;;5065925;28;20377;-68
2023/03/30 09:31:30;;;;;;;;;;;;;;;;;;5060372;28;19913;-69
2023/03/30 09:33:57;;;;;;;;;;;;;;;;;;5067891;28;19909;-69
2023/03/30 09:39:40;;;;;;;;;;;;;;;;;;5150124;27;19911;-68
2023/03/30 09:43:15;;;;;;;;;;;;;;;;;;5149088;27;19916;-68
2023/03/30 09:46:48;;;;;;;;;;;;;;;;;;5086766;28;19923;-68
2023/03/30 09:49:32;;;;;;;;;;;;;;;;;;5084853;27;19925;-69
2023/03/30 09:51:58;;;;;;;;;;;;;;;;;;5086011;28;19912;-68
2023/03/30 09:54:25;;;;;;;;;;;;;;;;;;5083586;28;19909;-69
2023/03/30 09:57:15;;;;;;;;;;;;;;;;;;5084608;27;19916;-69
2023/03/30 09:59:44;;;;;;;;;;;;;;;;;;5085979;28;19912;-68
2023/03/30 10:03:55;;;;;;;;;;;;;;;;;;5086574;27;19922;-68
2023/03/30 10:06:21;;;;;;;;;;;;;;;;;;5088056;28;19912;-69
2023/03/30 10:08:47;;;;;;;;;;;;;;;;;;5087854;28;20350;-68
2023/03/30 10:11:13;;;;;;;;;;;;;;;;;;5086815;28;20039;-68
2023/03/30 10:13:39;;;;;;;;;;;;;;;;;;5081538;28;19912;-68
2023/03/30 10:16:05;;;;;;;;;;;;;;;;;;5077074;28;19967;-68
2023/03/30 10:19:40;;;;;;;;;;;;;;;;;;5043263;27;2176414;-70
2023/03/30 10:24:35;;;;;;;;;;;;;;;;;;5086340;28;19917;-71
2023/03/30 10:28:44;;;;;;;;;;;;;;;;;;5105464;27;19920;-70
2023/03/30 10:31:59;;;;;;;;;;;;;;;;;;5109146;27;19912;-72
2023/03/30 10:34:25;;;;;;;;;;;;;;;;;;5108260;28;19912;-72
2023/03/30 10:36:51;;;;;;;;;;;;;;;;;;5109002;28;19908;-72
2023/03/30 10:39:17;;;;;;;;;;;;;;;;;;5110847;28;19915;-72
2023/03/30 10:43:37;;;;;;;;;;;;;;;;;;5066740;27;20289;-70
2023/03/30 10:48:55;;;;;;;;;;;;;;;;;;5050369;27;2900884;-71
2023/03/30 10:52:38;;;;;;;;;;;;;;;;;;5137003;27;20390;-72
2023/03/30 10:57:22;;;;;;;;;;;;;;;;;;5116111;27;19919;-72
2023/03/30 10:59:48;;;;;;;;;;;;;;;;;;5105613;28;19980;-72
2023/03/30 11:02:15;;;;;;;;;;;;;;;;;;5095746;28;19938;-71
2023/03/30 11:04:45;;;;;;;;;;;;;;;;;;5092806;28;19917;-71
2023/03/30 11:07:11;;;;;;;;;;;;;;;;;;5088832;28;20560;-72
2023/03/30 11:10:52;;;;;;;;;;;;;;;;;;5049481;27;2096254;-69
2023/03/30 11:20:22;;;;;;;;;;;;;;;;;;5085861;28;20422;-71
2023/03/30 11:22:48;;;;;;;;;;;;;;;;;;5078742;28;20336;-71
2023/03/30 11:29:54;;;;;;;;;;;;;;;;;;5087390;27;19918;-70
2023/03/30 11:32:20;;;;;;;;;;;;;;;;;;5086031;28;19919;-69
2023/03/30 11:34:46;;;;;;;;;;;;;;;;;;5087319;28;19913;-70
2023/03/30 11:37:12;;;;;;;;;;;;;;;;;;5086872;28;19955;-70
2023/03/30 11:39:38;;;;;;;;;;;;;;;;;;5087548;28;19915;-71
2023/03/30 11:42:04;;;;;;;;;;;;;;;;;;5086729;28;19913;-70
2023/03/30 11:44:30;;;;;;;;;;;;;;;;;;5070123;28;19999;-70
2023/03/30 11:46:56;;;;;;;;;;;;;;;;;;5072132;28;20000;-70
2023/03/30 11:50:38;;;;;;;;;;;;;;;;;;5089466;27;19913;-71
2023/03/30 11:53:04;;;;;;;;;;;;;;;;;;5074265;28;20288;-69
2023/03/30 11:57:23;;;;;;;;;;;;;;;;;;5087437;28;19924;-69
2023/03/30 11:59:49;;;;;;;;;;;;;;;;;;5080106;28;19912;-70
2023/03/30 12:02:15;;;;;;;;;;;;;;;;;;5081372;28;20039;-71
2023/03/30 12:06:16;;;;;;;;;;;;;;;;;;5139781;27;20463;-69
2023/03/30 12:08:42;;;;;;;;;;;;;;;;;;5133675;27;20395;-71
2023/03/30 12:12:59;;;;;;;;;;;;;;;;;;5108774;27;19912;-71
2023/03/30 12:15:25;;;;;;;;;;;;;;;;;;5109400;28;19923;-70
2023/03/30 12:17:51;;;;;;;;;;;;;;;;;;5108855;28;19908;-72
2023/03/30 12:20:17;;;;;;;;;;;;;;;;;;5101987;28;19912;-71
2023/03/30 12:22:43;;;;;;;;;;;;;;;;;;5104452;28;19916;-69
2023/03/30 12:25:11;;;;;;;;;;;;;;;;;;5087900;28;20365;-70
2023/03/30 12:27:38;;;;;;;;;;;;;;;;;;5088244;28;19913;-72
2023/03/30 12:30:04;;;;;;;;;;;;;;;;;;5088457;28;19962;-71
2023/03/30 12:32:30;;;;;;;;;;;;;;;;;;5086740;28;20335;-71
2023/03/30 12:36:07;;;;;;;;;;;;;;;;;;5088877;27;19923;-70
2023/03/30 12:38:36;;;;;;;;;;;;;;;;;;5087619;28;19916;-70
2023/03/30 12:41:02;;;;;;;;;;;;;;;;;;5087903;28;19954;-70
2023/03/30 12:43:28;;;;;;;;;;;;;;;;;;5089466;28;19909;-70
2023/03/30 12:46:01;;;;;;;;;;;;;;;;;;5087776;28;19913;-82
2023/03/30 12:48:27;;;;;;;;;;;;;;;;;;5082789;28;19940;-84
2023/03/30 12:50:53;;;;;;;;;;;;;;;;;;5088068;28;19955;-84
2023/03/30 12:53:19;;;;;;;;;;;;;;;;;;5084416;28;20335;-81
2023/03/30 12:55:46;;;;;;;;;;;;;;;;;;5074756;28;19920;-72
2023/03/30 12:58:12;;;;;;;;;;;;;;;;;;5088199;28;20314;-72
2023/03/30 13:00:39;;;;;;;;;;;;;;;;;;5085163;28;19917;-72
2023/03/30 13:04:59;;;;;;;;;;;;;;;;;;5087716;27;19916;-70
2023/03/30 13:07:25;;;;;;;;;;;;;;;;;;5087871;28;19919;-69
2023/03/30 13:09:55;;;;;;;;;;;;;;;;;;5087320;28;19908;-68
2023/03/30 13:12:21;;;;;;;;;;;;;;;;;;5088963;28;20339;-67
2023/03/30 13:14:46;;;;;;;;;;;;;;;;;;5088759;28;19954;-69
2023/03/30 13:17:12;;;;;;;;;;;;;;;;;;5088442;28;19995;-69
2023/03/30 13:19:39;;;;;;;;;;;;;;;;;;5086890;28;19908;-70
2023/03/30 13:22:05;;;;;;;;;;;;;;;;;;5086971;28;19908;-70
2023/03/30 13:24:31;;;;;;;;;;;;;;;;;;5085554;28;20060;-70
2023/03/30 13:26:57;;;;;;;;;;;;;;;;;;5086715;28;19979;-68
2023/03/30 13:29:23;;;;;;;;;;;;;;;;;;5087196;28;20303;-70
2023/03/30 13:31:49;;;;;;;;;;;;;;;;;;5087109;28;20033;-71
2023/03/30 13:34:15;;;;;;;;;;;;;;;;;;5085810;28;19916;-70
2023/03/30 13:36:41;;;;;;;;;;;;;;;;;;5087701;28;19908;-69
2023/03/30 13:39:08;;;;;;;;;;;;;;;;;;5086861;28;19915;-69
2023/03/30 13:41:34;;;;;;;;;;;;;;;;;;5086578;28;19943;-69
2023/03/30 13:44:00;;;;;;;;;;;;;;;;;;5087111;28;20390;-69
2023/03/30 13:46:26;;;;;;;;;;;;;;;;;;5087355;28;19978;-69
2023/03/30 13:48:52;;;;;;;;;;;;;;;;;;5088894;28;20307;-69
2023/03/30 13:51:18;;;;;;;;;;;;;;;;;;5089997;28;19915;-69
2023/03/30 13:53:44;;;;;;;;;;;;;;;;;;5089591;28;19915;-69
2023/03/30 13:56:10;;;;;;;;;;;;;;;;;;5089788;28;20007;-69
2023/03/30 13:58:35;;;;;;;;;;;;;;;;;;5090349;28;20372;-69
2023/03/30 14:01:01;;;;;;;;;;;;;;;;;;5090003;28;19915;-69
2023/03/30 14:03:27;;;;;;;;;;;;;;;;;;5086421;28;19920;-69
2023/03/30 14:05:53;;;;;;;;;;;;;;;;;;5088081;28;20012;-69
2023/03/30 14:08:19;;;;;;;;;;;;;;;;;;5086754;28;19913;-70
2023/03/30 14:10:45;;;;;;;;;;;;;;;;;;5088105;28;19908;-69
2023/03/30 14:13:11;;;;;;;;;;;;;;;;;;5088437;28;20046;-70
2023/03/30 14:15:37;;;;;;;;;;;;;;;;;;5078807;28;19908;-69
2023/03/30 14:18:04;;;;;;;;;;;;;;;;;;5075282;28;19908;-70
2023/03/30 14:20:30;;;;;;;;;;;;;;;;;;5076498;28;19947;-69
2023/03/30 14:22:57;;;;;;;;;;;;;;;;;;5075919;28;20073;-69
2023/03/30 14:25:23;;;;;;;;;;;;;;;;;;5076428;28;19912;-69
2023/03/30 14:27:49;;;;;;;;;;;;;;;;;;5076311;28;20008;-69
2023/03/30 14:30:15;;;;;;;;;;;;;;;;;;5074688;28;19912;-69
2023/03/30 14:32:41;;;;;;;;;;;;;;;;;;5075045;28;20426;-69
2023/03/30 14:35:07;;;;;;;;;;;;;;;;;;5076203;28;19908;-70
2023/03/30 14:37:33;;;;;;;;;;;;;;;;;;5075648;28;19908;-69
2023/03/30 14:39:59;;;;;;;;;;;;;;;;;;5076356;28;20277;-69
2023/03/30 14:42:25;;;;;;;;;;;;;;;;;;5075991;28;19915;-70
2023/03/30 14:44:51;;;;;;;;;;;;;;;;;;5075568;28;20393;-69
2023/03/30 14:47:17;;;;;;;;;;;;;;;;;;5075796;28;19915;-69
2023/03/30 14:49:43;;;;;;;;;;;;;;;;;;5075793;28;19908;-69
2023/03/30 14:52:09;;;;;;;;;;;;;;;;;;5075349;28;19913;-70
2023/03/30 14:54:35;;;;;;;;;;;;;;;;;;5075877;28;19908;-68
2023/03/30 14:57:02;;;;;;;;;;;;;;;;;;5076169;28;20372;-68
2023/03/30 14:59:28;;;;;;;;;;;;;;;;;;5075509;28;19909;-69
2023/03/30 15:01:54;;;;;;;;;;;;;;;;;;5075580;28;20018;-69
2023/03/30 15:04:20;;;;;;;;;;;;;;;;;;5074005;28;19920;-70
2023/03/30 15:06:47;;;;;;;;;;;;;;;;;;5074022;28;20357;-69
2023/03/30 15:09:13;;;;;;;;;;;;;;;;;;5074194;28;19908;-69
2023/03/30 15:11:39;;;;;;;;;;;;;;;;;;5075954;28;20241;-69
2023/03/30 15:14:05;;;;;;;;;;;;;;;;;;5075006;28;19914;-69
2023/03/30 15:16:31;;;;;;;;;;;;;;;;;;5075283;28;20033;-69
2023/03/30 15:18:57;;;;;;;;;;;;;;;;;;5075194;28;19908;-68
2023/03/30 15:21:23;;;;;;;;;;;;;;;;;;5073637;28;19908;-70
2023/03/30 15:23:49;;;;;;;;;;;;;;;;;;5075109;28;20014;-69
2023/03/30 15:26:15;;;;;;;;;;;;;;;;;;5073915;28;19947;-68
2023/03/30 15:28:41;;;;;;;;;;;;;;;;;;5074743;28;20261;-69
2023/03/30 15:31:07;;;;;;;;;;;;;;;;;;5073619;28;20007;-69
2023/03/30 15:33:34;;;;;;;;;;;;;;;;;;5074515;28;19908;-69
2023/03/30 15:36:00;;;;;;;;;;;;;;;;;;5075150;28;19999;-69
2023/03/30 15:40:55;;;;;;;;;;;;;;;;;;5152314;27;19986;-69
2023/03/30 15:43:21;;;;;;;;;;;;;;;;;;5134080;27;19947;-69
2023/03/30 15:45:47;;;;;;;;;;;;;;;;;;5153016;27;20386;-69
2023/03/30 15:48:15;;;;;;;;;;;;;;;;;;5152239;27;19911;-70
2023/03/30 15:50:41;;;;;;;;;;;;;;;;;;5152666;27;20419;-70
2023/03/30 15:53:07;;;;;;;;;;;;;;;;;;5134075;27;19907;-70
2023/03/30 15:55:33;;;;;;;;;;;;;;;;;;5133457;27;19950;-70
2023/03/30 15:57:59;;;;;;;;;;;;;;;;;;5152406;27;19907;-69
2023/03/30 16:00:26;;;;;;;;;;;;;;;;;;5152160;27;19915;-69
2023/03/30 16:02:56;;;;;;;;;;;;;;;;;;5151842;27;19907;-69
2023/03/30 16:05:22;;;;;;;;;;;;;;;;;;5152050;27;19907;-69
2023/03/30 16:07:48;;;;;;;;;;;;;;;;;;5152265;27;20472;-69
2023/03/30 16:10:14;;;;;;;;;;;;;;;;;;5151698;27;19917;-69
2023/03/30 16:12:40;;;;;;;;;;;;;;;;;;5152075;27;19913;-69
2023/03/30 16:15:06;;;;;;;;;;;;;;;;;;5152111;27;19976;-69
2023/03/30 16:17:33;;;;;;;;;;;;;;;;;;5151837;27;20260;-69
2023/03/30 16:19:59;;;;;;;;;;;;;;;;;;5133402;27;19968;-69
2023/03/30 16:22:25;;;;;;;;;;;;;;;;;;5151508;27;19907;-69
2023/03/30 16:24:52;;;;;;;;;;;;;;;;;;5152017;27;19907;-69
2023/03/30 16:27:18;;;;;;;;;;;;;;;;;;5151847;27;19908;-70
2023/03/30 16:32:23;;;;;;;;;;;;;;;;;;5111552;27;20307;-68
2023/03/30 16:34:51;;;;;;;;;;;;;;;;;;5111742;28;20010;-68
2023/03/30 16:40:27;;;;;;;;;;;;;;;;;;5091551;27;19916;-68
2023/03/30 16:44:50;;;;;;;;;;;;;;;;;;5111410;27;19916;-69
2023/03/30 16:49:57;;;;;;;;;;;;;;;;;;5111837;27;19926;-69
2023/03/30 16:52:23;;;;;;;;;;;;;;;;;;5111264;28;20007;-69
2023/03/30 16:54:49;;;;;;;;;;;;;;;;;;5111568;28;19908;-69
2023/03/30 16:57:46;;;;;;;;;;;;;;;;;;5111976;27;19942;-69
2023/03/30 17:00:12;;;;;;;;;;;;;;;;;;5111598;28;20439;-69
2023/03/30 17:02:38;;;;;;;;;;;;;;;;;;5111574;28;19908;-69
2023/03/30 17:05:04;;;;;;;;;;;;;;;;;;5111286;28;19907;-68
2023/03/30 17:07:30;;;;;;;;;;;;;;;;;;5111626;28;20288;-69
2023/03/30 17:13:05;;;;;;;;;;;;;;;;;;5071140;28;19917;-68
2023/03/30 17:15:33;;;;;;;;;;;;;;;;;;5071243;28;20008;-69
2023/03/30 17:18:00;;;;;;;;;;;;;;;;;;5086802;28;19944;-69
2023/03/30 17:24:41;;;;;;;;;;;;;;;;;;5112538;27;19916;-69
2023/03/30 17:28:14;;;;;;;;;;;;;;;;;;5112078;27;20295;-68
2023/03/30 17:31:16;;;;;;;;;;;;;;;;;;5112179;27;19916;-70
2023/03/30 17:33:42;;;;;;;;;;;;;;;;;;5111269;28;19947;-68
2023/03/30 17:42:38;;;;;;;;;;;;;;;;;;5091461;27;19912;-68
2023/03/30 17:45:04;;;;;;;;;;;;;;;;;;5091553;28;20008;-68
2023/03/30 17:47:30;;;;;;;;;;;;;;;;;;5090863;28;19940;-68
2023/03/30 17:50:12;;;;;;;;;;;;;;;;;;5111871;27;20340;-69
2023/03/30 17:54:07;;;;;;;;;;;;;;;;;;5111796;27;19912;-67
2023/03/30 17:57:12;;;;;;;;;;;;;;;;;;5111761;27;19916;-69
2023/03/30 17:59:38;;;;;;;;;;;;;;;;;;5111555;28;20007;-68
2023/03/30 18:02:25;;;;;;;;;;;;;;;;;;5111386;27;19916;-69
2023/03/30 18:04:51;;;;;;;;;;;;;;;;;;5111675;28;20336;-68
2023/03/30 18:08:38;;;;;;;;;;;;;;;;;;5152344;27;19918;-69
2023/03/30 18:11:04;;;;;;;;;;;;;;;;;;5134114;27;19911;-69
2023/03/30 18:13:30;;;;;;;;;;;;;;;;;;5152811;27;19907;-67